Time;durP1;ratioP1;P1;durP2;ratioP2;P2;SDS_P1;SDS_P2;PMS_P1;PMS_P2;Temp;Humidity;BMP_temperature;BMP_pressure;BME280_temperature;BME280_humidity;BME280_pressure;Samples;Min_cycle;Max_cycle;Signal;HPM_P1;HPM_P2
2022/01/19 00:02:25;;;;;;;3.27;2.97;;;;;;;1.11;79.67;100857.03;5065291;28;20208;-62
2022/01/19 00:04:52;;;;;;;3.83;3.60;;;;;;;1.04;80.10;100863.56;5066995;28;20212;-62
2022/01/19 00:07:19;;;;;;;4.00;3.80;;;;;;;0.97;80.69;100861.66;5067060;28;20294;-62
2022/01/19 00:09:46;;;;;;;11.70;3.33;;;;;;;0.95;81.04;100863.28;5068132;28;20215;-62
2022/01/19 00:12:13;;;;;;;3.93;3.30;;;;;;;0.89;81.53;100873.19;5066803;28;20738;-62
2022/01/19 00:14:40;;;;;;;5.40;3.43;;;;;;;0.90;81.70;100884.16;5067225;28;20196;-62
2022/01/19 00:17:07;;;;;;;3.30;3.20;;;;;;;0.83;81.71;100879.72;5068500;28;20230;-62
2022/01/19 00:19:35;;;;;;;3.40;3.20;;;;;;;0.75;81.85;100868.47;5069064;28;20287;-62
2022/01/19 00:22:02;;;;;;;3.90;3.60;;;;;;;0.77;82.23;100877.84;5068470;28;20739;-62
2022/01/19 00:24:29;;;;;;;3.63;3.20;;;;;;;0.72;82.16;100878.47;5069171;28;20287;-62
2022/01/19 00:26:56;;;;;;;3.13;2.97;;;;;;;0.75;82.23;100879.44;5069465;28;20274;-62
2022/01/19 00:29:22;;;;;;;5.00;3.27;;;;;;;0.78;81.56;100869.44;5068595;28;20304;-62
2022/01/19 00:31:49;;;;;;;4.20;3.20;;;;;;;0.80;81.46;100877.94;5069371;28;20286;-62
2022/01/19 00:34:16;;;;;;;3.03;2.83;;;;;;;0.81;80.88;100879.63;5068496;28;20287;-62
2022/01/19 00:36:44;;;;;;;2.70;2.50;;;;;;;0.80;81.00;100882.13;5069386;28;20303;-62
2022/01/19 00:39:11;;;;;;;3.50;2.93;;;;;;;0.84;81.28;100883.97;5070103;28;20648;-62
2022/01/19 00:41:38;;;;;;;9.60;2.90;;;;;;;0.82;81.16;100896.50;5068218;28;20207;-62
2022/01/19 00:44:05;;;;;;;3.47;3.17;;;;;;;0.83;81.21;100898.25;5067311;28;20316;-62
2022/01/19 00:46:32;;;;;;;2.80;2.60;;;;;;;0.82;81.29;100900.69;5069212;28;20293;-62
2022/01/19 00:48:59;;;;;;;2.80;2.70;;;;;;;0.78;81.61;100889.63;5069092;28;20295;-62
2022/01/19 00:51:26;;;;;;;3.80;2.87;;;;;;;0.77;81.93;100887.94;5068745;28;20227;-62
2022/01/19 00:53:55;;;;;;;2.97;2.77;;;;;;;0.63;81.80;100871.47;5068587;28;20244;-62
2022/01/19 00:56:22;;;;;;;3.87;3.23;;;;;;;0.73;81.40;100886.13;5068634;28;20205;-62
2022/01/19 00:58:49;;;;;;;3.40;3.10;;;;;;;0.77;80.98;100882.91;5068031;28;20208;-62
2022/01/19 01:01:16;;;;;;;3.03;2.83;;;;;;;0.80;80.36;100885.53;5070197;28;20597;-62
2022/01/19 01:03:43;;;;;;;3.53;3.33;;;;;;;0.82;79.74;100877.97;5073794;28;20290;-62
2022/01/19 01:06:10;;;;;;;5.03;3.00;;;;;;;0.82;79.44;100888.94;5073057;28;20279;-62
2022/01/19 01:08:37;;;;;;;2.43;2.23;;;;;;;0.91;79.00;100888.38;5073199;28;20298;-62
2022/01/19 01:11:05;;;;;;;3.57;3.27;;;;;;;0.93;78.80;100882.59;5071939;28;20215;-62
2022/01/19 01:16:18;;;;;;;5.53;3.33;;;;;;;0.84;80.14;100902.47;5072078;28;20254;-62
2022/01/19 01:18:45;;;;;;;7.00;3.23;;;;;;;0.87;80.57;100904.25;5073008;28;20203;-62
2022/01/19 01:21:12;;;;;;;2.73;2.63;;;;;;;0.68;80.60;100902.75;5072540;28;20192;-62
2022/01/19 01:23:39;;;;;;;7.93;3.00;;;;;;;0.73;80.39;100921.47;5069657;28;20203;-62
2022/01/19 01:26:09;;;;;;;5.33;3.60;;;;;;;0.71;80.68;100919.69;5072401;28;20290;-62
2022/01/19 01:28:36;;;;;;;3.47;3.27;;;;;;;0.67;80.52;100920.38;5072316;28;20206;-62
2022/01/19 01:31:04;;;;;;;3.13;2.93;;;;;;;0.62;80.71;100920.22;5071233;28;20306;-62
2022/01/19 01:33:31;;;;;;;3.13;2.77;;;;;;;0.58;80.72;100915.03;5071026;28;20645;-62
2022/01/19 01:35:58;;;;;;;3.23;3.03;;;;;;;0.59;80.96;100912.56;5072641;28;20196;-62
2022/01/19 01:38:24;;;;;;;6.80;3.40;;;;;;;0.60;81.13;100926.03;5072112;28;20576;-62
2022/01/19 01:40:52;;;;;;;4.23;2.97;;;;;;;0.59;81.23;100921.78;5071401;28;20200;-62
2022/01/19 01:43:21;;;;;;;3.63;3.33;;;;;;;0.53;81.38;100922.44;5070501;28;20286;-62
2022/01/19 01:45:53;;;;;;;3.33;3.03;;;;;;;0.51;81.53;100924.06;5073008;28;20204;-62
2022/01/19 01:48:23;;;;;;;6.50;3.33;;;;;;;0.43;81.76;100915.34;5069848;28;20207;-62
2022/01/19 01:53:37;;;;;;;6.70;2.93;;;;;;;0.44;81.18;100891.84;5068895;28;20207;-62
2022/01/19 01:56:06;;;;;;;4.17;3.10;;;;;;;0.42;81.32;100893.47;5071046;28;20207;-62
2022/01/19 01:58:36;;;;;;;4.93;3.10;;;;;;;0.42;81.21;100893.47;5069014;28;20204;-62
2022/01/19 02:01:05;;;;;;;4.23;2.93;;;;;;;0.39;81.96;100898.38;5071498;28;20290;-62
2022/01/19 02:03:38;;;;;;;7.13;3.23;;;;;;;0.37;82.10;100887.41;5072342;28;20556;-62
2022/01/19 02:08:52;;;;;;;3.37;3.17;;;;;;;0.40;81.44;100884.97;5066548;28;20700;-62
2022/01/19 02:23:03;;;;;;;6.77;3.50;;;;;;;0.31;82.58;100851.88;5068598;28;20202;-62
2022/01/19 02:25:36;;;;;;;4.33;2.67;;;;;;;0.21;82.46;100833.06;5068616;28;20638;-62
2022/01/19 02:41:56;;;;;;;5.27;2.80;;;;;;;0.27;84.19;100847.53;5069926;28;20571;-62
2022/01/19 02:44:40;;;;;;;3.40;2.87;;;;;;;0.25;84.14;100854.19;5069332;28;20228;-62
2022/01/19 02:49:54;;;;;;;5.00;2.80;;;;;;;0.30;82.41;100848.50;5071904;28;20273;-62
2022/01/19 02:52:24;;;;;;;4.57;2.40;;;;;;;0.32;81.48;100846.03;5070634;28;20204;-62
2022/01/19 02:54:51;;;;;;;3.37;3.00;;;;;;;0.36;81.62;100842.78;5070959;28;20208;-62
2022/01/19 02:57:24;;;;;;;2.37;2.23;;;;;;;0.40;80.87;100854.72;5070367;28;20226;-62
2022/01/19 03:06:17;;;;;;;3.33;2.93;;;;;;;0.38;81.06;100846.25;5071038;28;20663;-62
2022/01/19 03:10:54;;;;;;;2.90;2.80;;;;;;;0.20;82.88;100843.94;5044721;28;20243;-62
2022/01/19 03:13:21;;;;;;;4.30;2.63;;;;;;;0.25;83.02;100846.63;5069429;28;20688;-62
2022/01/19 03:15:48;;;;;;;7.37;3.50;;;;;;;0.18;83.14;100857.31;5070385;28;20195;-62
2022/01/19 03:18:15;;;;;;;3.20;2.80;;;;;;;0.22;83.27;100854.97;5070081;28;20204;-62
2022/01/19 03:20:42;;;;;;;3.57;3.13;;;;;;;0.14;84.09;100865.56;5070964;28;20594;-62
2022/01/19 03:23:17;;;;;;;4.40;2.80;;;;;;;0.07;84.89;100858.59;5069565;28;20322;-62
2022/01/19 03:25:44;;;;;;;3.10;2.80;;;;;;;-0.07;85.63;100861.50;5068949;28;20594;-62
2022/01/19 03:28:11;;;;;;;5.80;3.27;;;;;;;-0.19;85.84;100858.53;5069818;28;20571;-62
2022/01/19 03:30:38;;;;;;;3.33;3.13;;;;;;;-0.22;85.69;100855.03;5069935;28;20656;-62
2022/01/19 03:33:05;;;;;;;4.47;3.53;;;;;;;-0.28;85.65;100865.75;5068951;28;20291;-62
2022/01/19 03:35:32;;;;;;;3.47;3.17;;;;;;;-0.29;85.76;100864.03;5069273;28;20208;-61
2022/01/19 03:37:59;;;;;;;3.57;3.27;;;;;;;-0.47;85.87;100855.81;5070415;28;20286;-62
2022/01/19 03:40:27;;;;;;;3.43;3.13;;;;;;;-0.38;86.09;100878.81;5069425;28;20236;-62
2022/01/19 03:42:54;;;;;;;10.60;3.63;;;;;;;-0.44;86.49;100877.72;5070657;28;20291;-62
2022/01/19 03:45:21;;;;;;;2.87;2.77;;;;;;;-0.49;86.31;100875.06;5067312;28;20366;-62
2022/01/19 03:47:54;;;;;;;2.87;2.67;;;;;;;-0.46;86.19;100879.34;5069944;28;20683;-61
2022/01/19 03:50:21;;;;;;;4.37;3.30;;;;;;;-0.47;85.93;100878.47;5068515;28;20211;-61
2022/01/19 03:52:48;;;;;;;8.60;3.67;;;;;;;-0.53;85.93;100858.09;5069345;28;20295;-62
2022/01/19 03:55:15;;;;;;;3.07;2.83;;;;;;;-0.47;85.87;100873.44;5068280;28;20204;-62
2022/01/19 03:57:43;;;;;;;5.07;3.13;;;;;;;-0.42;85.56;100876.97;5069313;28;20295;-62
2022/01/19 04:00:12;;;;;;;5.93;3.27;;;;;;;-0.42;85.47;100876.97;5068734;28;20747;-62
2022/01/19 04:02:40;;;;;;;4.63;3.23;;;;;;;-0.38;85.31;100872.91;5068522;28;20683;-61
2022/01/19 04:05:14;;;;;;;11.47;3.07;;;;;;;-0.35;84.94;100873.88;5068286;28;20283;-62
2022/01/19 04:07:41;;;;;;;3.50;2.87;;;;;;;-0.30;84.54;100869.91;5068667;28;20695;-62
2022/01/19 04:10:08;;;;;;;3.23;3.00;;;;;;;-0.28;84.12;100868.28;5067925;28;20587;-62
2022/01/19 04:12:54;;;;;;;3.90;3.20;;;;;;;-0.41;84.27;100867.78;5069777;28;20688;-62
2022/01/19 04:15:24;;;;;;;3.47;2.67;;;;;;;-0.29;84.10;100889.22;5069554;28;20279;-61
2022/01/19 04:17:53;;;;;;;4.43;2.73;;;;;;;-0.28;84.47;100893.47;5070509;28;20295;-62
2022/01/19 04:20:23;;;;;;;4.83;3.00;;;;;;;-0.27;84.75;100887.66;5067527;28;20206;-62
2022/01/19 04:22:50;;;;;;;3.93;3.00;;;;;;;-0.29;85.03;100889.22;5068039;28;20200;-62
2022/01/19 04:25:17;;;;;;;3.37;3.07;;;;;;;-0.34;85.74;100890.72;5066881;28;20196;-61
2022/01/19 04:27:44;;;;;;;2.37;2.27;;;;;;;-0.45;85.99;100879.38;5067838;28;20200;-61
2022/01/19 04:30:13;;;;;;;4.07;3.50;;;;;;;-0.33;85.99;100894.13;5065753;28;20680;-61
2022/01/19 04:32:52;;;;;;;3.03;2.70;;;;;;;-0.28;86.04;100895.13;5066321;28;20303;-61
2022/01/19 04:35:23;;;;;;;2.43;2.33;;;;;;;-0.27;86.00;100890.16;5066464;28;20196;-61
2022/01/19 04:38:35;;;;;;;6.17;2.60;;;;;;;-0.26;85.79;100889.34;5069731;28;20585;-61
2022/01/19 04:44:09;;;;;;;2.37;2.27;;;;;;;-0.26;85.27;100879.25;5067972;28;20231;-62
2022/01/19 04:47:12;;;;;;;2.63;2.53;;;;;;;-0.21;84.40;100903.00;5064660;28;20291;-61
2022/01/19 05:03:41;;;;;;;5.03;3.27;;;;;;;0.14;81.28;100914.34;5068541;28;20230;-62
2022/01/19 05:06:12;;;;;;;3.60;3.30;;;;;;;0.14;81.73;100910.94;5066463;28;20261;-62
2022/01/19 05:08:57;;;;;;;5.97;2.50;;;;;;;0.15;81.28;100927.81;5068078;28;20196;-61
2022/01/19 05:14:08;;;;;;;3.63;3.33;;;;;;;0.12;81.76;100947.88;5066854;28;20286;-61
2022/01/19 05:16:35;;;;;;;3.67;3.47;;;;;;;0.05;82.52;100948.44;5069349;28;20292;-62
2022/01/19 05:19:02;;;;;;;4.50;3.13;;;;;;;-0.06;82.82;100953.09;5068655;28;20207;-61
2022/01/19 05:21:30;;;;;;;4.90;3.93;;;;;;;-0.15;82.82;100953.63;5068575;28;20192;-61
2022/01/19 05:24:03;;;;;;;10.77;4.20;;;;;;;-0.21;83.21;100953.38;5068650;28;20200;-61
2022/01/19 05:26:30;;;;;;;6.23;4.00;;;;;;;-0.24;83.54;100948.22;5069246;28;20680;-61
2022/01/19 05:28:57;;;;;;;3.70;3.10;;;;;;;-0.17;83.54;100957.75;5068658;28;20558;-61
2022/01/19 05:31:24;;;;;;;4.00;2.60;;;;;;;-0.17;83.19;100959.41;5066499;28;20249;-61
2022/01/19 05:33:51;;;;;;;2.80;2.47;;;;;;;-0.13;83.04;100958.72;5069222;28;20673;-62
2022/01/19 05:36:18;;;;;;;7.27;3.20;;;;;;;-0.06;82.93;100959.00;5069401;28;20283;-61
2022/01/19 05:38:46;;;;;;;5.43;3.13;;;;;;;-0.01;82.79;100962.56;5069345;28;20231;-61
2022/01/19 05:41:13;;;;;;;3.00;2.80;;;;;;;-0.01;83.14;100952.47;5067839;28;20195;-61
2022/01/19 05:43:40;;;;;;;3.20;2.80;;;;;;;0.00;82.80;100959.22;5067050;28;20667;-61
2022/01/19 05:46:07;;;;;;;3.83;3.43;;;;;;;0.00;83.09;100969.31;5066775;28;20264;-61
2022/01/19 05:48:34;;;;;;;4.97;2.60;;;;;;;-0.04;83.53;100974.19;5071027;28;20211;-61
2022/01/19 05:51:01;;;;;;;3.57;3.27;;;;;;;-0.09;83.96;100968.09;5067882;28;20660;-61
2022/01/19 05:53:28;;;;;;;4.57;3.00;;;;;;;-0.05;83.46;100970.81;5068407;28;20641;-62
2022/01/19 05:55:56;;;;;;;3.90;2.97;;;;;;;-0.03;83.75;100981.78;5070709;28;20200;-61
2022/01/19 05:58:23;;;;;;;4.43;3.40;;;;;;;0.04;83.58;100984.53;5072489;28;20211;-61
2022/01/19 06:00:50;;;;;;;4.10;3.57;;;;;;;0.07;83.13;100989.69;5071204;28;20744;-61
2022/01/19 06:03:17;;;;;;;4.33;3.93;;;;;;;0.07;83.10;101004.81;5068707;28;20319;-61
2022/01/19 06:05:44;;;;;;;2.90;2.80;;;;;;;-0.01;83.57;101018.03;5065383;28;20787;-61
2022/01/19 06:08:28;;;;;;;3.70;3.40;;;;;;;-0.13;84.23;101016.69;5067579;28;20394;-61
2022/01/19 06:10:57;;;;;;;6.50;4.77;;;;;;;-0.15;84.26;101016.63;5071361;28;20283;-61
2022/01/19 06:13:26;;;;;;;6.23;4.27;;;;;;;-0.24;84.38;101028.88;5070853;28;20668;-61
2022/01/19 06:15:53;;;;;;;5.83;4.87;;;;;;;-0.29;84.08;101025.31;5071931;28;20290;-61
2022/01/19 06:18:21;;;;;;;4.67;4.37;;;;;;;-0.30;84.29;101028.63;5071236;28;20200;-61
2022/01/19 06:20:48;;;;;;;6.13;3.93;;;;;;;-0.26;83.81;101025.41;5071959;28;20192;-61
2022/01/19 06:23:15;;;;;;;10.90;4.43;;;;;;;-0.26;84.16;101030.47;5070874;28;20287;-62
2022/01/19 06:25:42;;;;;;;3.60;3.27;;;;;;;-0.20;84.06;101030.72;5071057;28;20283;-62
2022/01/19 06:28:11;;;;;;;3.23;3.03;;;;;;;-0.10;83.72;101029.41;5070696;28;20568;-61
2022/01/19 06:30:38;;;;;;;7.80;2.93;;;;;;;-0.05;83.92;101033.81;5068312;28;20207;-61
2022/01/19 06:33:05;;;;;;;3.93;3.57;;;;;;;0.01;84.04;101033.19;5070231;28;20219;-62
2022/01/19 06:35:33;;;;;;;11.23;4.43;;;;;;;0.04;83.90;101030.78;5070283;28;20201;-62
2022/01/19 06:38:00;;;;;;;5.43;3.50;;;;;;;0.08;84.06;101034.28;5069524;28;20192;-61
2022/01/19 06:40:27;;;;;;;7.83;4.73;;;;;;;0.08;84.05;101027.59;5068352;28;20680;-61
2022/01/19 06:42:55;;;;;;;3.87;3.57;;;;;;;0.07;83.58;101012.38;5066684;28;20246;-61
2022/01/19 06:45:23;;;;;;;4.90;3.80;;;;;;;0.15;83.74;101014.41;5070765;28;20310;-62
2022/01/19 06:47:50;;;;;;;4.80;3.87;;;;;;;0.30;84.09;101031.75;5068080;28;20211;-62
2022/01/19 06:50:20;;;;;;;7.83;3.30;;;;;;;0.37;83.90;101024.47;5071216;28;20231;-59
2022/01/19 06:52:47;;;;;;;3.73;3.43;;;;;;;0.42;83.58;101038.09;5070683;28;20701;-57
2022/01/19 06:55:15;;;;;;;3.90;3.60;;;;;;;0.52;83.52;101041.81;5070306;28;20208;-58
2022/01/19 06:57:42;;;;;;;5.43;3.33;;;;;;;0.61;82.92;101047.22;5071036;28;20727;-58
2022/01/19 07:00:10;;;;;;;9.33;3.73;;;;;;;0.67;82.92;101046.56;5069843;28;20283;-58
2022/01/19 07:02:39;;;;;;;9.40;5.27;;;;;;;0.73;83.16;101042.59;5070398;28;20587;-58
2022/01/19 07:05:06;;;;;;;4.13;3.90;;;;;;;0.78;82.94;101041.09;5069508;28;20283;-61
2022/01/19 07:07:33;;;;;;;4.53;4.13;;;;;;;0.78;82.96;101041.09;5068153;28;20300;-62
2022/01/19 07:10:00;;;;;;;4.83;4.43;;;;;;;0.82;81.30;101032.81;5069682;28;20295;-62
2022/01/19 07:12:29;;;;;;;4.67;4.27;;;;;;;0.80;80.50;101024.34;5068739;28;20595;-62
2022/01/19 07:14:56;;;;;;;10.60;5.37;;;;;;;0.84;80.67;101028.69;5071191;28;20264;-62
2022/01/19 07:17:23;;;;;;;5.93;4.40;;;;;;;0.84;80.48;101016.06;5069574;28;20722;-62
2022/01/19 07:19:51;;;;;;;9.93;4.90;;;;;;;0.96;80.97;101025.72;5068999;28;20551;-62
2022/01/19 07:22:18;;;;;;;4.27;3.97;;;;;;;0.92;81.13;101012.16;5070778;28;20203;-62
2022/01/19 07:24:45;;;;;;;4.97;4.17;;;;;;;1.13;80.78;101041.47;5065431;28;20204;-62
2022/01/19 07:27:12;;;;;;;5.17;4.70;;;;;;;1.18;80.33;101040.81;5067735;28;20644;-65
2022/01/19 07:29:39;;;;;;;4.50;4.20;;;;;;;1.29;80.37;101043.69;5068663;28;20208;-63
2022/01/19 07:32:06;;;;;;;4.40;4.10;;;;;;;1.30;79.35;101042.88;5069852;28;20216;-63
2022/01/19 07:34:33;;;;;;;5.17;4.67;;;;;;;1.36;79.99;101043.06;5070424;28;20223;-65
2022/01/19 07:37:03;;;;;;;4.43;4.13;;;;;;;1.44;79.59;101036.59;5071382;28;20291;-65
2022/01/19 07:39:30;;;;;;;5.50;4.40;;;;;;;1.44;79.87;101027.38;5068602;28;20200;-65
2022/01/19 07:41:57;;;;;;;4.50;4.20;;;;;;;1.52;80.06;101030.13;5069918;28;20580;-63
2022/01/19 07:44:24;;;;;;;6.13;4.10;;;;;;;1.66;79.27;101036.47;5069922;28;20270;-63
2022/01/19 07:46:52;;;;;;;7.60;4.30;;;;;;;1.77;79.06;101044.41;5071098;28;20283;-63
2022/01/19 07:49:19;;;;;;;6.13;4.63;;;;;;;1.82;78.85;101040.34;5068455;28;20200;-64
2022/01/19 07:51:45;;;;;;;7.33;3.23;;;;;;;1.88;78.51;101040.53;5070224;28;20314;-62
2022/01/19 07:54:14;;;;;;;4.63;3.63;;;;;;;2.01;78.73;101035.91;5069217;28;20287;-62
2022/01/19 07:56:41;;;;;;;4.83;3.67;;;;;;;2.12;78.23;101041.28;5070538;28;20207;-62
2022/01/19 07:59:08;;;;;;;6.30;3.57;;;;;;;2.27;78.03;101035.81;5066434;28;20224;-62
2022/01/19 08:01:35;;;;;;;4.63;4.23;;;;;;;2.34;77.76;101032.66;5066830;28;20231;-65
2022/01/19 08:04:02;;;;;;;4.77;3.17;;;;;;;2.47;75.86;101034.72;5070699;28;20208;-64
2022/01/19 08:06:29;;;;;;;4.50;3.63;;;;;;;2.61;75.56;101034.31;5067023;28;20260;-64
2022/01/19 08:08:56;;;;;;;4.17;3.87;;;;;;;2.74;74.87;101037.16;5068237;28;20223;-65
2022/01/19 08:11:24;;;;;;;3.57;3.37;;;;;;;2.90;74.71;101036.75;5067587;28;20685;-66
2022/01/19 08:13:51;;;;;;;4.67;3.73;;;;;;;3.02;74.37;101037.09;5065562;28;20220;-65
2022/01/19 08:16:18;;;;;;;4.57;4.17;;;;;;;3.13;74.64;101041.59;5068044;28;20200;-65
2022/01/19 08:18:45;;;;;;;3.63;3.30;;;;;;;3.27;73.45;101043.63;5067869;28;20200;-64
2022/01/19 08:21:12;;;;;;;3.77;3.50;;;;;;;3.36;72.16;101047.25;5066771;28;20208;-65
2022/01/19 08:23:39;;;;;;;3.47;3.17;;;;;;;3.41;71.23;101043.19;5066086;28;20200;-64
2022/01/19 08:26:06;;;;;;;4.13;3.73;;;;;;;3.30;71.10;101043.69;5065114;28;20711;-65
2022/01/19 08:28:35;;;;;;;3.73;3.20;;;;;;;3.42;70.23;101044.03;5067309;28;20232;-65
2022/01/19 08:31:02;;;;;;;3.30;3.10;;;;;;;3.53;70.06;101047.69;5068463;28;20670;-65
2022/01/19 08:33:29;;;;;;;4.37;3.20;;;;;;;3.72;69.96;101044.75;5067596;28;20222;-65
2022/01/19 08:35:55;;;;;;;4.47;3.10;;;;;;;3.89;69.34;101051.09;5066686;28;20304;-63
2022/01/19 08:38:23;;;;;;;3.50;3.20;;;;;;;3.98;67.41;101048.75;5068221;28;20207;-65
2022/01/19 08:40:50;;;;;;;3.53;2.77;;;;;;;4.03;67.31;101031.09;5067139;28;20537;-65
2022/01/19 08:43:17;;;;;;;3.07;2.80;;;;;;;4.14;68.30;101030.50;5067523;28;20196;-65
2022/01/19 08:45:45;;;;;;;3.30;3.00;;;;;;;4.12;66.80;101032.16;5069092;28;20227;-64
2022/01/19 08:48:12;;;;;;;5.30;3.30;;;;;;;4.19;65.85;101018.78;5066117;28;20196;-65
2022/01/19 08:50:39;;;;;;;5.03;2.77;;;;;;;4.22;66.37;101023.94;5067735;28;20295;-65
2022/01/19 08:53:06;;;;;;;4.63;3.07;;;;;;;4.27;65.44;101028.22;5067959;28;20218;-65
2022/01/19 08:55:32;;;;;;;3.07;2.87;;;;;;;4.34;65.23;101033.47;5069243;28;20299;-65
2022/01/19 08:57:59;;;;;;;7.47;2.90;;;;;;;4.33;65.64;101026.66;5068007;28;20200;-65
2022/01/19 09:00:26;;;;;;;2.63;2.53;;;;;;;4.47;65.47;101025.28;5066151;28;20303;-65
2022/01/19 09:02:55;;;;;;;3.53;3.23;;;;;;;4.56;65.57;101011.91;5069577;28;20196;-65
2022/01/19 09:05:22;;;;;;;3.50;3.37;;;;;;;4.61;65.40;101003.56;5068710;28;20208;-65
2022/01/19 09:07:49;;;;;;;4.07;3.23;;;;;;;4.64;65.08;101012.94;5068641;28;20291;-65
2022/01/19 09:10:17;;;;;;;4.47;3.03;;;;;;;4.73;63.71;101002.94;5067680;28;20253;-65
2022/01/19 09:12:44;;;;;;;3.30;3.10;;;;;;;4.76;64.08;100998.78;5067472;28;20212;-65
2022/01/19 09:15:12;;;;;;;4.03;3.10;;;;;;;4.84;63.67;101011.63;5068096;28;20287;-65
2022/01/19 09:17:41;;;;;;;3.13;2.80;;;;;;;4.79;61.89;101018.28;5069747;28;20640;-65
2022/01/19 09:20:11;;;;;;;6.53;3.20;;;;;;;4.82;61.41;101008.19;5066870;28;20638;-64
2022/01/19 09:22:39;;;;;;;6.67;3.27;;;;;;;4.89;62.69;101004.94;5071364;28;20291;-64
2022/01/19 09:25:07;;;;;;;3.00;2.80;;;;;;;4.87;61.16;101011.69;5073317;28;20298;-65
2022/01/19 09:27:34;;;;;;;3.30;3.00;;;;;;;4.88;60.89;100995.59;5073401;28;20206;-65
2022/01/19 09:30:02;;;;;;;3.23;2.97;;;;;;;4.97;60.61;100995.78;5073234;28;20298;-64
2022/01/19 09:32:28;;;;;;;3.03;2.83;;;;;;;5.02;59.77;100991.63;5074010;28;20302;-66
2022/01/19 09:35:04;;;;;;;3.07;2.33;;;;;;;5.04;59.09;100977.25;5069902;28;20212;-66
2022/01/19 09:37:32;;;;;;;4.77;3.17;;;;;;;5.01;60.59;100977.19;5071555;28;20218;-64
2022/01/19 09:39:59;;;;;;;2.80;2.70;;;;;;;5.11;61.52;100962.94;5073687;28;20640;-65
2022/01/19 09:42:26;;;;;;;2.90;2.70;;;;;;;5.19;59.66;100967.34;5071934;28;20753;-66
2022/01/19 09:44:53;;;;;;;10.60;3.23;;;;;;;5.27;59.97;100972.53;5070898;28;20246;-65
2022/01/19 09:47:21;;;;;;;3.23;2.90;;;;;;;5.20;59.05;100971.59;5070347;28;20656;-65
2022/01/19 09:49:48;;;;;;;3.83;2.83;;;;;;;5.28;60.68;100964.09;5072539;28;20215;-65
2022/01/19 09:52:15;;;;;;;5.30;3.03;;;;;;;5.26;59.38;100964.09;5070901;28;20200;-66
2022/01/19 09:54:43;;;;;;;2.97;2.33;;;;;;;5.32;59.83;100957.38;5072782;28;20337;-65
2022/01/19 09:57:10;;;;;;;2.97;2.70;;;;;;;5.44;59.20;100960.09;5072433;28;20295;-65
2022/01/19 09:59:37;;;;;;;4.57;2.60;;;;;;;5.42;59.82;100952.47;5072733;28;20212;-66
2022/01/19 10:02:06;;;;;;;2.50;2.40;;;;;;;5.57;59.38;100951.81;5071448;28;20385;-66
2022/01/19 10:04:34;;;;;;;5.80;2.90;;;;;;;5.60;57.65;100946.78;5068574;28;20207;-66
2022/01/19 10:07:13;;;;;;;4.27;3.83;;;;;;;5.64;57.09;100953.63;5070683;28;20211;-66
2022/01/19 10:09:54;;;;;;;3.60;2.93;;;;;;;5.61;57.36;100948.50;5072543;28;20578;-65
2022/01/19 10:18:17;;;;;;;3.47;2.47;;;;;;;5.81;58.08;100949.66;5067456;28;20317;-66
2022/01/19 10:20:46;;;;;;;5.03;3.07;;;;;;;5.83;57.63;100930.16;5069651;28;20211;-66
2022/01/19 10:23:37;;;;;;;3.60;2.70;;;;;;;5.92;56.35;100935.38;5068017;28;20204;-65
2022/01/19 10:26:07;;;;;;;3.50;3.07;;;;;;;5.84;56.89;100921.69;5068882;28;20675;-66
2022/01/19 10:28:56;;;;;;;3.87;3.00;;;;;;;5.98;57.15;100922.75;5066822;28;20207;-66
2022/01/19 10:31:24;;;;;;;5.47;3.07;;;;;;;6.00;58.84;100918.53;5070216;28;20668;-67
2022/01/19 10:34:16;;;;;;;15.73;4.28;;;;;;;6.18;59.74;100923.84;5068630;28;20441;-67
2022/01/19 10:36:45;;;;;;;4.83;2.97;;;;;;;6.29;57.44;100917.19;5068247;28;20207;-67
2022/01/19 10:39:13;;;;;;;2.80;2.60;;;;;;;6.40;56.11;100903.72;5071177;28;20286;-67
2022/01/19 10:41:57;;;;;;;3.73;2.60;;;;;;;6.26;54.98;100901.88;5070353;28;20216;-68
2022/01/19 10:44:30;;;;;;;2.37;2.27;;;;;;;6.27;56.17;100898.47;5071732;28;20703;-67
2022/01/19 10:46:57;;;;;;;3.47;2.27;;;;;;;6.37;56.83;100898.56;5069611;28;20212;-67
2022/01/19 10:49:25;;;;;;;5.60;3.00;;;;;;;6.41;57.59;100882.50;5070303;28;20271;-68
2022/01/19 10:51:57;;;;;;;2.37;2.17;;;;;;;6.39;55.27;100881.63;5071020;28;20639;-68
2022/01/19 10:54:27;;;;;;;6.27;2.97;;;;;;;6.44;56.56;100879.97;5071990;28;20281;-68
2022/01/19 10:56:58;;;;;;;2.77;2.50;;;;;;;6.55;56.36;100880.94;5070034;28;20200;-68
2022/01/19 10:59:27;;;;;;;3.40;3.07;;;;;;;6.63;56.70;100866.56;5070469;28;20257;-68
2022/01/19 11:01:56;;;;;;;4.77;3.73;;;;;;;6.70;55.71;100873.44;5070644;28;20290;-68
2022/01/19 11:04:29;;;;;;;4.17;3.97;;;;;;;6.68;56.60;100862.38;5071329;28;20200;-68
2022/01/19 11:06:59;;;;;;;6.33;3.33;;;;;;;6.74;56.62;100870.94;5071695;28;20303;-68
2022/01/19 11:09:29;;;;;;;3.63;3.30;;;;;;;6.73;56.98;100859.03;5071866;28;20204;-68
2022/01/19 11:12:06;;;;;;;5.23;3.27;;;;;;;6.77;55.34;100865.00;5069812;28;20203;-67
2022/01/19 11:14:35;;;;;;;4.07;3.20;;;;;;;6.78;55.76;100851.44;5071892;28;20319;-68
2022/01/19 11:17:03;;;;;;;3.23;2.97;;;;;;;6.90;55.49;100841.31;5071618;28;20204;-67
2022/01/19 11:19:31;;;;;;;4.33;3.27;;;;;;;7.01;56.54;100829.50;5071901;28;20656;-68
2022/01/19 11:22:12;;;;;;;9.20;2.93;;;;;;;7.06;55.92;100822.75;5071386;28;20207;-68
2022/01/19 11:24:55;;;;;;;3.40;3.13;;;;;;;7.09;54.20;100817.66;5071042;28;20196;-68
2022/01/19 11:27:28;;;;;;;2.40;2.30;;;;;;;7.07;53.47;100819.38;5070352;28;20643;-68
2022/01/19 11:30:18;;;;;;;3.40;3.17;;;;;;;7.06;53.12;100817.66;5071127;28;20207;-67
2022/01/19 11:33:06;;;;;;;4.60;3.17;;;;;;;7.01;53.46;100819.28;5070330;28;20211;-68
2022/01/19 11:35:34;;;;;;;5.23;3.43;;;;;;;6.93;54.08;100804.78;5070636;28;20207;-68
2022/01/19 11:38:02;;;;;;;7.83;2.90;;;;;;;7.02;53.08;100798.06;5071458;28;20211;-67
2022/01/19 11:40:35;;;;;;;2.97;2.77;;;;;;;7.10;52.36;100793.88;5071607;28;20215;-68
2022/01/19 11:43:26;;;;;;;5.00;2.90;;;;;;;7.07;52.25;100788.75;5071616;28;20200;-68
2022/01/19 11:45:54;;;;;;;5.07;3.57;;;;;;;7.08;53.26;100787.91;5066366;28;20253;-67
2022/01/19 11:48:23;;;;;;;5.03;3.47;;;;;;;7.12;52.76;100779.44;5071573;28;20196;-67
2022/01/19 11:50:51;;;;;;;2.87;2.67;;;;;;;7.12;52.32;100788.78;5070358;28;20284;-68
2022/01/19 11:53:19;;;;;;;3.90;2.87;;;;;;;7.07;53.16;100770.06;5071098;28;20224;-67
2022/01/19 11:56:03;;;;;;;4.30;3.30;;;;;;;7.15;53.71;100776.91;5071452;28;20645;-68
2022/01/19 11:58:31;;;;;;;4.50;2.57;;;;;;;7.06;53.04;100776.84;5071297;28;20199;-68
2022/01/19 12:00:59;;;;;;;3.10;2.80;;;;;;;7.03;51.87;100781.94;5071169;28;20298;-67
2022/01/19 12:03:28;;;;;;;3.43;3.13;;;;;;;7.08;53.41;100777.69;5071288;28;20196;-68
2022/01/19 12:05:56;;;;;;;3.73;3.53;;;;;;;7.19;53.19;100765.88;5069982;28;20668;-68
2022/01/19 12:08:30;;;;;;;5.20;3.23;;;;;;;7.18;51.38;100766.72;5070543;28;20188;-68
2022/01/19 12:11:11;;;;;;;3.23;2.80;;;;;;;7.21;52.69;100759.06;5071088;28;20634;-67
2022/01/19 12:13:57;;;;;;;3.13;2.70;;;;;;;7.17;51.76;100754.78;5071025;28;20302;-68
2022/01/19 12:16:48;;;;;;;3.10;2.90;;;;;;;7.24;51.79;100751.44;5069661;28;20941;-72
2022/01/19 12:19:20;;;;;;;10.93;3.00;;;;;;;7.40;50.74;100750.66;5068028;28;20257;-76
2022/01/19 12:21:50;;;;;;;3.23;2.97;;;;;;;7.46;50.99;100746.44;5068358;28;20200;-76
2022/01/19 12:24:27;;;;;;;3.57;3.27;;;;;;;7.54;52.08;100739.66;5066259;28;20740;-75
2022/01/19 12:27:01;;;;;;;3.47;2.73;;;;;;;7.56;51.67;100727.78;5066625;28;20567;-74
2022/01/19 12:29:52;;;;;;;3.60;3.30;;;;;;;7.57;51.85;100721.78;5065480;28;20214;-73
2022/01/19 12:32:47;;;;;;;7.13;4.40;;;;;;;7.61;52.33;100713.31;5065770;28;20204;-72
2022/01/19 12:35:19;;;;;;;2.93;2.73;;;;;;;7.57;52.48;100715.00;5063258;28;20302;-73
2022/01/19 12:37:49;;;;;;;6.13;3.80;;;;;;;7.53;51.92;100702.25;5063234;28;20196;-73
2022/01/19 12:40:42;;;;;;;2.93;2.73;;;;;;;7.55;52.34;100692.88;5065850;28;20288;-73
2022/01/19 12:43:12;;;;;;;3.53;3.23;;;;;;;7.55;52.80;100693.75;5062722;28;20214;-72
2022/01/19 12:45:49;;;;;;;3.43;3.20;;;;;;;7.58;52.92;100695.44;5065681;28;20208;-73
2022/01/19 12:48:34;;;;;;;3.27;3.03;;;;;;;7.66;52.48;100698.84;5064809;28;20231;-73
2022/01/19 12:51:02;;;;;;;5.07;3.33;;;;;;;7.67;52.13;100690.34;5065345;28;20200;-72
2022/01/19 12:53:28;;;;;;;5.80;3.87;;;;;;;7.67;52.36;100690.34;5065923;28;20228;-72
2022/01/19 12:55:58;;;;;;;3.63;3.37;;;;;;;7.64;52.31;100687.78;5067642;28;20651;-72